createdAt,value
2019-06-07T00:00:54.220Z,8.10
2019-06-07T00:03:30.177Z,7.53
2019-06-07T00:06:01.106Z,6.72
2019-06-07T00:08:33.378Z,7.60
2019-06-07T00:11:07.763Z,7.12
2019-06-07T00:13:39.863Z,7.33
2019-06-07T00:16:14.944Z,7.05
2019-06-07T00:18:46.559Z,7.58
2019-06-07T00:21:20.388Z,7.17
2019-06-07T00:23:52.827Z,7.45
2019-06-07T00:26:26.845Z,8.90
2019-06-07T00:28:59.214Z,9.10
2019-06-07T00:31:31.485Z,8.58
2019-06-07T00:34:03.858Z,6.03
2019-06-07T00:36:36.428Z,6.03
2019-06-07T00:39:10.601Z,5.87
2019-06-07T00:41:43.531Z,5.92
2019-06-07T00:44:19.727Z,6.10
2019-06-07T00:46:49.912Z,5.87
2019-06-07T00:49:39.899Z,5.58
2019-06-07T00:51:56.295Z,6.00
2019-06-07T00:54:29.187Z,7.75
2019-06-07T00:57:01.753Z,8.60
2019-06-07T00:59:33.925Z,6.25
2019-06-07T01:02:07.437Z,7.15
2019-06-07T01:04:39.690Z,7.35
2019-06-07T01:07:13.230Z,5.65
2019-06-07T01:09:45.499Z,6.22
2019-06-07T01:12:21.264Z,6.15
2019-06-07T01:14:52.453Z,8.83
2019-06-07T01:17:41.314Z,10.25
2019-06-07T01:20:03.747Z,6.28
2019-06-07T01:22:36.021Z,4.45
2019-06-07T01:25:09.405Z,4.85
2019-06-07T01:27:41.682Z,5.28
2019-06-07T01:30:16.350Z,5.75
2019-06-07T01:32:48.596Z,5.80
2019-06-07T01:35:22.064Z,5.70
2019-06-07T01:37:54.958Z,5.95
2019-06-07T01:40:30.464Z,7.70
2019-06-07T01:43:01.552Z,7.83
2019-06-07T01:45:35.254Z,6.53
2019-06-07T01:48:07.832Z,7.55
2019-06-07T01:50:40.200Z,7.65
2019-06-07T01:53:12.971Z,6.67
2019-06-07T01:55:45.256Z,6.47
2019-06-07T01:58:17.522Z,5.62
2019-06-07T02:00:49.997Z,5.65
2019-06-07T02:03:28.092Z,6.25
2019-06-07T02:05:58.223Z,6.92
2019-06-07T02:08:34.183Z,9.70
2019-06-07T02:11:04.609Z,6.40
2019-06-07T02:13:36.665Z,5.97
2019-06-07T02:16:09.039Z,6.90
2019-06-07T02:19:00.672Z,5.90
2019-06-07T02:21:16.037Z,6.50
2019-06-07T02:23:48.763Z,6.97
2019-06-07T02:26:22.959Z,8.83
2019-06-07T02:28:55.301Z,8.50
2019-06-07T02:31:32.288Z,6.80
2019-06-07T02:34:01.892Z,7.15
2019-06-07T02:36:40.982Z,7.10
2019-06-07T02:39:08.582Z,7.62
2019-06-07T02:41:41.047Z,7.85
2019-06-07T02:44:13.424Z,7.87
2019-06-07T02:46:49.653Z,8.05
2019-06-07T02:49:19.915Z,8.23
2019-06-07T02:51:52.281Z,8.00
2019-06-07T02:54:27.418Z,8.25
2019-06-07T02:56:59.472Z,8.88
2019-06-07T02:59:54.868Z,8.28
2019-06-07T03:02:07.302Z,8.23
2019-06-07T03:04:44.557Z,7.78
2019-06-07T03:07:17.670Z,8.15
2019-06-07T03:09:51.172Z,8.03
2019-06-07T03:12:23.852Z,7.90
2019-06-07T03:14:56.684Z,7.20
2019-06-07T03:17:44.265Z,8.03
2019-06-07T03:20:21.609Z,7.87
2019-06-07T03:22:55.239Z,7.92
2019-06-07T03:25:30.854Z,7.85
2019-06-07T03:28:04.772Z,8.43
2019-06-07T03:30:57.223Z,7.97
2019-06-07T03:33:11.088Z,8.73
2019-06-07T03:35:43.356Z,9.10
2019-06-07T03:38:15.628Z,9.35
2019-06-07T03:40:48.001Z,11.30
2019-06-07T03:43:20.371Z,10.20
2019-06-07T03:45:52.744Z,9.13
2019-06-07T03:48:25.215Z,9.08
2019-06-07T03:51:04.629Z,8.20
2019-06-07T03:53:32.763Z,8.38
2019-06-07T03:56:06.075Z,6.97
2019-06-07T03:58:49.250Z,7.78
2019-06-07T04:01:12.198Z,7.58
2019-06-07T04:03:51.612Z,8.23
2019-06-07T04:06:20.755Z,7.10
2019-06-07T04:08:53.303Z,7.90
2019-06-07T04:11:25.681Z,8.30
2019-06-07T04:13:58.052Z,7.97
2019-06-07T04:16:34.924Z,7.40
2019-06-07T04:19:05.870Z,7.72
2019-06-07T04:21:42.591Z,7.83
2019-06-07T04:24:13.477Z,6.58
2019-06-07T04:26:46.822Z,6.97
2019-06-07T04:29:59.639Z,6.50
2019-06-07T04:31:53.055Z,5.75
2019-06-07T04:34:25.530Z,6.28
2019-06-07T04:36:59.606Z,5.40
2019-06-07T04:39:35.830Z,6.00
2019-06-07T04:42:09.714Z,5.67
2019-06-07T04:44:43.204Z,5.20
2019-06-07T04:47:16.594Z,6.40
2019-06-07T04:49:50.103Z,5.17
2019-06-07T04:52:22.263Z,5.65
2019-06-07T04:54:54.832Z,6.05
2019-06-07T04:57:29.999Z,6.53
2019-06-07T05:00:21.271Z,6.87
2019-06-07T05:02:39.798Z,5.30
2019-06-07T05:05:10.791Z,5.20
2019-06-07T05:07:45.945Z,6.35
2019-06-07T05:10:16.753Z,4.70
2019-06-07T05:12:49.132Z,5.78
2019-06-07T05:15:21.905Z,5.55
2019-06-07T05:17:53.968Z,5.42
2019-06-07T05:20:26.444Z,4.90
2019-06-07T05:22:58.711Z,4.60
2019-06-07T05:25:33.267Z,4.78
2019-06-07T05:28:05.309Z,5.03
2019-06-07T05:33:14.109Z,4.17
2019-06-07T05:35:46.309Z,4.58
2019-06-07T05:38:18.677Z,4.70
2019-06-07T05:40:51.054Z,3.70
2019-06-07T05:43:26.101Z,3.47
2019-06-07T05:45:58.664Z,3.85
2019-06-07T05:48:31.821Z,4.10
2019-06-07T05:51:04.427Z,3.10
2019-06-07T05:53:39.015Z,2.90
2019-06-07T05:56:12.053Z,3.27
2019-06-07T05:58:45.640Z,3.12
2019-06-07T06:03:52.548Z,2.87
2019-06-07T06:06:24.737Z,3.08
2019-06-07T06:09:12.869Z,3.52
2019-06-07T06:11:48.150Z,2.35
2019-06-07T06:14:07.905Z,2.50
2019-06-07T06:16:40.413Z,2.40
2019-06-07T06:19:13.893Z,2.77
2019-06-07T06:21:46.561Z,3.20
2019-06-07T06:24:18.984Z,2.55
2019-06-07T06:26:56.982Z,2.47
2019-06-07T06:29:25.281Z,2.45
2019-06-07T06:32:40.379Z,2.10
2019-06-07T06:34:32.362Z,2.52
2019-06-07T06:37:04.949Z,2.45
2019-06-07T06:39:37.416Z,2.37
2019-06-07T06:42:09.991Z,2.40
2019-06-07T06:44:44.456Z,3.65
2019-06-07T06:47:16.351Z,2.67
2019-06-07T06:49:50.122Z,3.08
2019-06-07T06:52:22.760Z,3.08
2019-06-07T06:55:00.967Z,2.47
2019-06-07T06:57:29.238Z,2.90
2019-06-07T07:00:01.516Z,3.50
2019-06-07T07:02:34.104Z,2.90
2019-06-07T07:05:08.203Z,2.95
2019-06-07T07:07:40.799Z,2.55
2019-06-07T07:10:16.424Z,4.12
2019-06-07T07:12:51.227Z,3.30
2019-06-07T07:15:23.016Z,6.62
2019-06-07T07:18:07.884Z,8.15
2019-06-07T07:20:29.599Z,4.15
2019-06-07T07:23:01.973Z,4.83
2019-06-07T07:25:34.245Z,3.30
2019-06-07T07:28:07.232Z,2.77
2019-06-07T07:30:47.291Z,2.40
2019-06-07T07:33:21.497Z,2.50
2019-06-07T07:36:18.493Z,2.70
2019-06-07T07:38:27.880Z,2.60
2019-06-07T07:41:15.303Z,2.17
2019-06-07T07:43:34.359Z,3.70
2019-06-07T07:46:28.404Z,7.53
2019-06-07T07:48:40.541Z,6.95
2019-06-07T07:51:12.911Z,2.80
2019-06-07T07:53:54.285Z,2.70
2019-06-07T07:56:19.906Z,2.55
2019-06-07T07:58:56.224Z,6.15
2019-06-07T08:01:27.723Z,2.52
2019-06-07T08:04:00.609Z,3.10
2019-06-07T08:06:32.980Z,3.00
2019-06-07T08:09:08.053Z,3.30
2019-06-07T08:11:40.186Z,7.12
2019-06-07T08:14:12.660Z,8.85
2019-06-07T08:16:44.822Z,5.65
2019-06-07T08:19:17.660Z,5.00
2019-06-07T08:21:50.654Z,2.55
2019-06-07T08:24:23.207Z,2.75
2019-06-07T08:27:17.835Z,2.55
2019-06-07T08:29:44.358Z,2.15
2019-06-07T08:32:03.048Z,2.35
2019-06-07T08:34:35.318Z,2.42
2019-06-07T08:37:07.791Z,1.98
2019-06-07T08:39:40.365Z,2.25
2019-06-07T08:42:21.191Z,2.20
2019-06-07T08:44:47.369Z,2.30
2019-06-07T08:47:21.232Z,2.20
2019-06-07T08:49:59.536Z,2.22
2019-06-07T08:52:27.757Z,2.22
2019-06-07T08:55:04.741Z,2.95
2019-06-07T08:57:34.575Z,4.87
2019-06-07T09:00:42.473Z,2.77
2019-06-07T09:02:43.439Z,2.90
2019-06-07T09:05:16.477Z,2.55
2019-06-07T09:08:08.119Z,2.40
2019-06-07T09:10:22.860Z,3.20
2019-06-07T09:13:02.982Z,2.22
2019-06-07T09:15:29.140Z,2.55
2019-06-07T09:20:44.493Z,2.10
2019-06-07T09:23:18.825Z,2.72
2019-06-07T09:26:02.614Z,3.27
2019-06-07T09:28:25.345Z,2.30
2019-06-07T09:30:59.771Z,2.72
2019-06-07T09:33:31.715Z,2.42
2019-06-07T09:36:09.218Z,3.08
2019-06-07T09:38:38.203Z,2.25
2019-06-07T09:41:10.675Z,2.33
2019-06-07T09:46:17.367Z,3.33
2019-06-07T09:51:23.639Z,3.27
2019-06-07T09:53:57.917Z,2.80
2019-06-07T09:56:30.227Z,3.50
2019-06-07T09:59:06.150Z,2.50
2019-06-07T10:01:36.921Z,4.05
2019-06-07T10:04:21.917Z,5.10
2019-06-07T10:06:43.618Z,4.12
2019-06-07T10:11:49.992Z,5.75
2019-06-07T10:14:22.685Z,5.97
2019-06-07T10:16:55.254Z,8.05
2019-06-07T10:19:27.415Z,6.33
2019-06-07T10:22:01.212Z,3.90
2019-06-07T10:24:33.799Z,5.37
2019-06-07T10:27:06.175Z,3.95
2019-06-07T10:29:39.771Z,5.15
2019-06-07T10:32:12.239Z,4.25
2019-06-07T10:34:44.722Z,4.33
2019-06-07T10:37:16.986Z,4.10
2019-06-07T10:39:49.490Z,3.65
2019-06-07T10:42:22.754Z,3.70
2019-06-07T10:44:55.026Z,4.65
2019-06-07T10:47:27.397Z,4.28
2019-06-07T10:49:59.773Z,3.87
2019-06-07T10:52:32.193Z,4.47
2019-06-07T10:55:06.862Z,5.35
2019-06-07T10:57:39.137Z,10.53
2019-06-07T11:00:14.221Z,10.03
2019-06-07T11:02:46.791Z,8.48
2019-06-07T11:05:19.229Z,6.83
2019-06-07T11:07:51.731Z,4.97
2019-06-07T11:10:24.169Z,6.78
2019-06-07T11:12:56.542Z,3.95
2019-06-07T11:15:29.103Z,3.70
2019-06-07T11:18:01.388Z,4.42
2019-06-07T11:20:33.758Z,3.62
2019-06-07T11:23:06.699Z,4.30
2019-06-07T11:25:39.322Z,5.45
2019-06-07T11:28:12.542Z,4.12
2019-06-07T11:30:44.782Z,4.58
2019-06-07T11:33:17.052Z,4.08
2019-06-07T11:35:49.115Z,3.87
2019-06-07T11:38:21.487Z,2.92
2019-06-07T11:40:53.860Z,3.77
2019-06-07T11:43:26.333Z,3.30
2019-06-07T11:45:58.702Z,3.45
2019-06-07T11:48:31.084Z,4.03
2019-06-07T11:51:03.566Z,4.75
2019-06-07T11:53:36.281Z,3.75
2019-06-07T11:56:10.325Z,3.98
2019-06-07T11:58:42.712Z,3.17
2019-06-07T12:01:17.145Z,3.00
2019-06-07T12:03:49.504Z,3.40
2019-06-07T12:06:21.773Z,2.67
2019-06-07T12:08:54.255Z,3.15
2019-06-07T12:11:26.729Z,2.85
2019-06-07T12:13:59.816Z,2.98
2019-06-07T12:16:32.185Z,21.87
2019-06-07T12:19:04.663Z,7.95
2019-06-07T12:21:36.934Z,4.45
2019-06-07T12:24:10.336Z,3.50
2019-06-07T12:26:42.598Z,4.22
2019-06-07T12:29:14.966Z,2.65
2019-06-07T12:31:47.137Z,3.02
2019-06-07T12:34:19.592Z,2.92
2019-06-07T12:36:52.083Z,2.50
2019-06-07T12:39:24.456Z,2.98
2019-06-07T12:41:57.035Z,2.92
2019-06-07T12:44:29.325Z,2.70
2019-06-07T12:47:01.570Z,3.52
2019-06-07T12:49:33.850Z,3.98
2019-06-07T12:52:07.545Z,2.52
2019-06-07T12:54:40.097Z,2.80
2019-06-07T12:57:13.696Z,3.65
2019-06-07T12:59:46.192Z,3.58
2019-06-07T13:02:20.036Z,3.58
2019-06-07T13:04:53.087Z,2.62
2019-06-07T13:07:25.366Z,2.58
2019-06-07T13:09:57.728Z,2.47
2019-06-07T13:12:30.206Z,4.35
2019-06-07T13:15:02.384Z,3.60
2019-06-07T13:17:37.307Z,2.77
2019-06-07T13:20:10.769Z,8.15
2019-06-07T13:22:42.969Z,4.87
2019-06-07T13:25:16.290Z,3.25
2019-06-07T13:27:48.433Z,4.10
2019-06-07T13:30:23.023Z,16.35
2019-06-07T13:32:55.526Z,3.55
2019-06-07T13:35:29.594Z,3.65
2019-06-07T13:38:01.608Z,3.87
2019-06-07T13:40:33.980Z,3.70
2019-06-07T13:43:06.349Z,3.65
2019-06-07T13:45:38.517Z,3.47
2019-06-07T13:48:10.873Z,3.90
2019-06-07T13:50:43.259Z,4.67
2019-06-07T13:53:15.824Z,5.17
2019-06-07T13:55:48.100Z,5.50
2019-06-07T13:58:21.264Z,4.58
2019-06-07T14:00:55.002Z,5.45
2019-06-07T14:03:32.717Z,4.35
2019-06-07T14:06:01.723Z,3.80
2019-06-07T14:08:34.369Z,4.80
2019-06-07T14:11:06.739Z,4.10
2019-06-07T14:13:39.214Z,3.58
2019-06-07T14:16:11.828Z,3.77
2019-06-07T14:18:44.367Z,3.22
2019-06-07T14:21:16.837Z,3.65
2019-06-07T14:23:49.586Z,3.10
2019-06-07T14:26:23.102Z,4.00
2019-06-07T14:28:55.387Z,3.67
2019-06-07T14:31:28.138Z,3.98
2019-06-07T14:34:00.364Z,3.83
2019-06-07T14:36:33.313Z,3.95
2019-06-07T14:39:07.649Z,4.17
2019-06-07T14:41:39.812Z,5.10
2019-06-07T14:44:12.287Z,8.95
2019-06-07T14:46:44.863Z,5.12
2019-06-07T14:49:17.331Z,4.80
2019-06-07T14:51:49.724Z,5.28
2019-06-07T14:54:22.718Z,4.60
2019-06-07T14:56:54.965Z,4.72
2019-06-07T14:59:28.338Z,5.55
2019-06-07T15:02:00.836Z,4.85
2019-06-07T15:04:32.998Z,9.20
2019-06-07T15:07:05.682Z,5.35
2019-06-07T15:09:39.311Z,4.90
2019-06-07T15:12:24.149Z,5.28
2019-06-07T15:14:45.457Z,4.92
2019-06-07T15:17:17.731Z,6.47
2019-06-07T15:19:49.994Z,10.80
2019-06-07T15:22:22.263Z,8.95
2019-06-07T15:24:54.841Z,8.08
2019-06-07T15:27:27.323Z,7.42
2019-06-07T15:30:00.402Z,5.85
2019-06-07T15:32:35.187Z,7.22
2019-06-07T15:35:08.749Z,7.75
2019-06-07T15:37:41.111Z,10.20
2019-06-07T15:40:14.202Z,10.98
2019-06-07T15:42:52.706Z,9.98
2019-06-07T15:45:20.491Z,8.43
2019-06-07T15:47:52.947Z,7.30
2019-06-07T15:50:28.641Z,7.30
2019-06-07T15:52:59.844Z,8.25
2019-06-07T15:55:37.172Z,7.12
2019-06-07T15:58:06.965Z,6.17
2019-06-07T16:00:41.054Z,6.55
2019-06-07T16:03:13.729Z,5.85
2019-06-07T16:05:46.002Z,7.47
2019-06-07T16:08:18.373Z,7.60
2019-06-07T16:10:50.640Z,7.60
2019-06-07T16:13:22.910Z,9.00
2019-06-07T16:15:55.281Z,16.00
2019-06-07T16:18:27.864Z,14.23
2019-06-07T16:21:00.230Z,11.80
2019-06-07T16:23:33.653Z,12.33
2019-06-07T16:26:06.207Z,12.45
2019-06-07T16:28:38.784Z,12.33
2019-06-07T16:31:11.263Z,7.90
2019-06-07T16:33:45.202Z,8.08
2019-06-07T16:36:17.747Z,10.30
2019-06-07T16:38:50.120Z,11.08
2019-06-07T16:41:22.484Z,10.18
2019-06-07T16:43:55.774Z,9.63
2019-06-07T16:46:28.254Z,12.88
2019-06-07T16:49:00.632Z,11.97
2019-06-07T16:51:33.116Z,11.50
2019-06-07T16:54:06.133Z,10.85
2019-06-07T16:56:43.365Z,9.70
2019-06-07T16:59:12.362Z,12.18
2019-06-07T17:01:45.334Z,12.75
2019-06-07T17:04:18.825Z,12.55
2019-06-07T17:06:51.016Z,12.05
2019-06-07T17:09:23.626Z,12.13
2019-06-07T17:11:56.274Z,11.45
2019-06-07T17:14:28.642Z,14.83
2019-06-07T17:17:01.118Z,10.75
2019-06-07T17:19:33.591Z,14.63
2019-06-07T17:22:05.861Z,15.98
2019-06-07T17:24:39.138Z,18.65
2019-06-07T17:27:11.631Z,17.02
2019-06-07T17:29:45.722Z,12.45
2019-06-07T17:32:18.022Z,21.20
2019-06-07T17:34:50.691Z,15.65
2019-06-07T17:37:23.265Z,14.95
2019-06-07T17:39:55.537Z,14.85
2019-06-07T17:42:28.120Z,17.82
2019-06-07T17:45:00.696Z,13.45
2019-06-07T17:47:32.960Z,14.65
2019-06-07T17:50:09.326Z,16.45
2019-06-07T17:52:41.829Z,18.85
2019-06-07T17:55:15.389Z,18.98
2019-06-07T17:57:48.517Z,17.80
2019-06-07T18:00:29.498Z,21.90
2019-06-07T18:02:57.836Z,18.95
2019-06-07T18:05:30.316Z,21.48
2019-06-07T18:08:03.714Z,16.75
2019-06-07T18:10:40.098Z,19.82
2019-06-07T18:13:12.348Z,18.50
2019-06-07T18:15:52.315Z,16.60
2019-06-07T18:18:21.404Z,18.00
2019-06-07T18:20:55.502Z,16.42
2019-06-07T18:23:27.986Z,16.07
2019-06-07T18:26:00.143Z,18.27
2019-06-07T18:28:32.314Z,16.60
2019-06-07T18:31:05.411Z,18.15
2019-06-07T18:33:37.673Z,18.80
2019-06-07T18:36:09.738Z,18.17
2019-06-07T18:38:42.312Z,19.10
2019-06-07T18:41:14.886Z,23.55
2019-06-07T18:43:47.466Z,22.77
2019-06-07T18:46:19.731Z,20.08
2019-06-07T18:48:52.619Z,20.20
2019-06-07T18:51:25.093Z,20.88
2019-06-07T18:53:57.922Z,21.65
2019-06-07T18:56:30.254Z,18.32
2019-06-07T18:59:02.825Z,16.67
2019-06-07T19:01:35.095Z,19.92
2019-06-07T19:04:08.246Z,17.40
2019-06-07T19:06:41.275Z,18.10
2019-06-07T19:09:13.862Z,17.75
2019-06-07T19:11:46.731Z,17.42
2019-06-07T19:14:19.410Z,15.03
2019-06-07T19:16:52.319Z,14.60
2019-06-07T19:19:25.700Z,15.55
2019-06-07T19:21:58.389Z,15.10
2019-06-07T19:24:31.168Z,14.60
2019-06-07T19:27:03.621Z,13.15
2019-06-07T19:29:36.234Z,11.97
2019-06-07T19:32:11.334Z,15.28
2019-06-07T19:34:44.014Z,13.38
2019-06-07T19:37:17.001Z,12.37
2019-06-07T19:39:49.680Z,11.83
2019-06-07T19:42:22.358Z,12.50
2019-06-07T19:45:00.838Z,12.37
2019-06-07T19:47:31.619Z,12.40
2019-06-07T19:50:05.926Z,12.28
2019-06-07T19:52:38.510Z,11.05
2019-06-07T19:55:11.524Z,11.35
2019-06-07T19:57:43.868Z,10.98
2019-06-07T20:00:16.545Z,9.90
2019-06-07T20:02:49.243Z,9.85
2019-06-07T20:05:21.896Z,9.98
2019-06-07T20:07:54.547Z,10.55
2019-06-07T20:10:26.948Z,11.15
2019-06-07T20:12:59.520Z,9.73
2019-06-07T20:15:33.030Z,10.00
2019-06-07T20:18:05.719Z,10.28
2019-06-07T20:20:37.984Z,10.70
2019-06-07T20:23:10.498Z,10.08
2019-06-07T20:25:43.133Z,9.03
2019-06-07T20:28:15.599Z,9.63
2019-06-07T20:30:48.087Z,11.05
2019-06-07T20:33:20.553Z,9.13
2019-06-07T20:35:52.819Z,9.23
2019-06-07T20:38:25.301Z,8.95
2019-06-07T20:40:57.667Z,10.30
2019-06-07T20:43:30.245Z,9.45
2019-06-07T20:46:05.055Z,10.28
2019-06-07T20:48:37.351Z,10.18
2019-06-07T20:51:09.919Z,9.03
2019-06-07T20:53:42.596Z,7.15
2019-06-07T20:56:14.970Z,8.43
2019-06-07T20:58:47.242Z,9.28
2019-06-07T21:01:19.717Z,11.18
2019-06-07T21:03:52.324Z,17.90
2019-06-07T21:06:24.971Z,19.98
2019-06-07T21:08:57.342Z,23.67
2019-06-07T21:11:29.623Z,24.60
2019-06-07T21:14:02.053Z,39.38
2019-06-07T21:16:34.256Z,41.70
2019-06-07T21:19:06.726Z,41.23
2019-06-07T21:21:39.011Z,43.45
2019-06-07T21:24:12.186Z,42.38
2019-06-07T21:26:44.559Z,33.13
2019-06-07T21:29:17.033Z,37.40
2019-06-07T21:31:49.510Z,38.88
2019-06-07T21:34:21.982Z,36.17
2019-06-07T21:36:54.561Z,35.55
2019-06-07T21:39:27.035Z,36.68
2019-06-07T21:41:59.205Z,34.20
2019-06-07T21:44:31.778Z,27.22
2019-06-07T21:47:04.287Z,29.42
2019-06-07T21:49:36.728Z,25.62
2019-06-07T21:52:09.100Z,24.82
2019-06-07T21:54:41.688Z,25.20
2019-06-07T21:57:13.849Z,20.57
2019-06-07T21:59:46.213Z,22.50
2019-06-07T22:02:18.791Z,18.50
2019-06-07T22:04:50.960Z,19.10
2019-06-07T22:07:23.330Z,18.75
2019-06-07T22:09:55.705Z,19.52
2019-06-07T22:12:28.175Z,18.50
2019-06-07T22:15:00.548Z,17.80
2019-06-07T22:17:32.931Z,15.68
2019-06-07T22:20:08.807Z,15.58
2019-06-07T22:22:41.966Z,16.32
2019-06-07T22:25:15.149Z,14.78
2019-06-07T22:27:47.422Z,12.33
2019-06-07T22:30:20.234Z,8.55
2019-06-07T22:32:52.379Z,8.08
2019-06-07T22:35:24.739Z,9.10
2019-06-07T22:37:57.115Z,8.50
2019-06-07T22:40:30.800Z,9.85
2019-06-07T22:43:03.084Z,12.98
2019-06-07T22:45:35.564Z,10.63
2019-06-07T22:48:08.898Z,13.55
2019-06-07T22:50:41.124Z,11.48
2019-06-07T22:53:13.937Z,11.10
2019-06-07T22:55:48.836Z,10.23
2019-06-07T22:58:21.208Z,8.93
2019-06-07T23:00:53.580Z,8.65
2019-06-07T23:03:26.158Z,8.65
2019-06-07T23:05:58.417Z,9.03
2019-06-07T23:08:31.107Z,7.28
2019-06-07T23:11:03.381Z,5.97
2019-06-07T23:13:35.642Z,5.28
2019-06-07T23:16:09.386Z,5.47
2019-06-07T23:18:41.619Z,6.10
2019-06-07T23:21:13.989Z,6.50
2019-06-07T23:23:46.466Z,8.68
2019-06-07T23:26:18.835Z,11.97
2019-06-07T23:28:51.315Z,10.82
2019-06-07T23:31:23.785Z,11.30
2019-06-07T23:33:56.362Z,9.23
2019-06-07T23:36:28.729Z,9.35
2019-06-07T23:39:01.105Z,7.70
2019-06-07T23:41:34.401Z,5.95
2019-06-07T23:44:06.973Z,6.12
2019-06-07T23:46:40.575Z,7.60
2019-06-07T23:49:14.035Z,5.90
2019-06-07T23:51:46.293Z,7.20
2019-06-07T23:54:19.822Z,6.70
2019-06-07T23:56:52.431Z,8.10
2019-06-07T23:59:24.685Z,7.53
